University Center, MI

8:55 PM EDT on August 03, 2015 (GMT -0400)
Delta College | | Change Station
CLOSE
Current Station
Personal Weather Station
Location: University Center, MI
Elevation: 637 ft
Nearby Weather Stations

Elev 637 ft 43.56 °N, 83.99 °W | Updated 34 seconds ago

Overcast
Overcast
70.7 °F
Feels Like 75 °F
N
2.0
Wind Variable Wind from West
Gusts 6.0 mph

Today
High -- | Low -- °F
--% Chance of Precip.
Yesterday
High -- | Low -- °F
Precip. -- in
6:27 AM 8:56 PM
Waning Gibbous, 82% visible
Pressure 29.81 in
Visibility 10.0 miles
Clouds Overcast 8500 ft
Heat Index 75 °F
Dew Point 58 °F
Humidity 65%
Rainfall 0.00 in
Snow Depth Not available.
UV 0 out of 12
Pollen 3.70 out of 12
Air Quality Not available.
Flu Activity Not available.
METAR KMBS 040053Z 28006KT 10SM OVC085 22/12 A2982 RMK AO2 SLP093 T02170122

More Conditions Fewer Conditions

Pressure 29.81 in
Visibility 10.0 miles
Clouds Overcast 8500 ft
Heat Index 75 °F
Dew Point 58 °F
Humidity 65%
Rainfall 0.00 in
Snow Depth Not available.
UV 0 out of 12
Pollen 3.70 out of 12
Air Quality Not available.
Flu Activity Not available.
METAR KMBS 040053Z 28006KT 10SM OVC085 22/12 A2982 RMK AO2 SLP093 T02170122

More Conditions Fewer Conditions

10-Day Weather Forecast

×

Almanac

Astronomy

Aug. 03, 2015 Rise Set
Actual Time
Civil Twilight
Nautical Twilight
Astronomical Twilight
Moon
Length of Visible Light
Length of Day
Tomorrow will be .
, % of the Moon is Illuminated

Today's Extremes

State Highs State Lows

Community

WunderPhotos

Upload Photos

1,843,797 photos uploaded!

WunderBlogs® & News

Nearby

Air Quality

  Air Quality AQ Index Pollutant
Not available.

Snow Depth

Station Depth Elevation

Earthquake Activity

City Distance Mag. Time & Date
Minimum magnitude displayed is 2.5.

Coastal Water Temperatures

Place Temperature

Stations

Nearby Weather Stations

Station Location Temp. Windchill Dew Point Humidity Wind Precip. Elev Updated Type